sensor_id;sensor_type;location;lat;lon;timestamp;P1;durP1;ratioP1;P2;durP2;ratioP2
735;SDS011;352;48.626;9.238;2022-10-24T00:00:51;2.93;;;1.50;;
735;SDS011;352;48.626;9.238;2022-10-24T00:03:18;7.17;;;1.63;;
735;SDS011;352;48.626;9.238;2022-10-24T00:05:45;3.00;;;1.50;;
735;SDS011;352;48.626;9.238;2022-10-24T00:08:13;3.23;;;1.50;;
735;SDS011;352;48.626;9.238;2022-10-24T00:10:41;3.97;;;1.67;;
735;SDS011;352;48.626;9.238;2022-10-24T00:13:09;3.37;;;1.30;;
735;SDS011;352;48.626;9.238;2022-10-24T00:15:37;4.70;;;1.53;;
735;SDS011;352;48.626;9.238;2022-10-24T00:18:06;5.43;;;1.83;;
735;SDS011;352;48.626;9.238;2022-10-24T00:20:33;4.63;;;1.67;;
735;SDS011;352;48.626;9.238;2022-10-24T00:23:01;3.00;;;1.83;;
735;SDS011;352;48.626;9.238;2022-10-24T00:25:27;2.37;;;1.37;;
735;SDS011;352;48.626;9.238;2022-10-24T00:27:54;4.03;;;1.60;;
735;SDS011;352;48.626;9.238;2022-10-24T00:30:21;6.40;;;1.60;;
735;SDS011;352;48.626;9.238;2022-10-24T00:32:49;3.83;;;1.60;;
735;SDS011;352;48.626;9.238;2022-10-24T00:35:17;4.27;;;1.27;;
735;SDS011;352;48.626;9.238;2022-10-24T00:37:44;6.77;;;1.60;;
735;SDS011;352;48.626;9.238;2022-10-24T00:40:12;5.10;;;1.50;;
735;SDS011;352;48.626;9.238;2022-10-24T00:42:40;3.50;;;1.60;;
735;SDS011;352;48.626;9.238;2022-10-24T00:48:02;4.37;;;2.10;;
735;SDS011;352;48.626;9.238;2022-10-24T00:50:36;6.03;;;2.47;;
735;SDS011;352;48.626;9.238;2022-10-24T00:53:02;3.20;;;2.10;;
735;SDS011;352;48.626;9.238;2022-10-24T00:55:29;6.50;;;2.47;;
735;SDS011;352;48.626;9.238;2022-10-24T00:57:56;4.63;;;1.97;;
735;SDS011;352;48.626;9.238;2022-10-24T01:00:26;5.80;;;1.97;;
735;SDS011;352;48.626;9.238;2022-10-24T01:02:55;5.67;;;1.90;;
735;SDS011;352;48.626;9.238;2022-10-24T01:05:23;4.33;;;1.43;;
735;SDS011;352;48.626;9.238;2022-10-24T01:07:58;3.93;;;1.63;;
735;SDS011;352;48.626;9.238;2022-10-24T01:10:32;5.37;;;1.67;;
735;SDS011;352;48.626;9.238;2022-10-24T01:13:08;6.50;;;2.10;;
735;SDS011;352;48.626;9.238;2022-10-24T01:15:53;9.03;;;2.53;;
735;SDS011;352;48.626;9.238;2022-10-24T01:18:27;5.53;;;1.80;;
735;SDS011;352;48.626;9.238;2022-10-24T01:21:04;5.97;;;1.90;;
735;SDS011;352;48.626;9.238;2022-10-24T01:29:48;8.00;;;4.40;;
735;SDS011;352;48.626;9.238;2022-10-24T01:32:25;5.97;;;2.20;;
735;SDS011;352;48.626;9.238;2022-10-24T01:34:59;6.57;;;1.87;;
735;SDS011;352;48.626;9.238;2022-10-24T01:37:32;3.60;;;1.77;;
735;SDS011;352;48.626;9.238;2022-10-24T01:40:05;4.10;;;1.60;;
735;SDS011;352;48.626;9.238;2022-10-24T01:42:35;5.27;;;1.57;;
735;SDS011;352;48.626;9.238;2022-10-24T01:45:07;8.90;;;2.20;;
735;SDS011;352;48.626;9.238;2022-10-24T01:47:39;3.33;;;1.60;;
735;SDS011;352;48.626;9.238;2022-10-24T01:50:10;2.20;;;1.40;;
735;SDS011;352;48.626;9.238;2022-10-24T01:52:40;3.17;;;1.97;;
735;SDS011;352;48.626;9.238;2022-10-24T01:55:09;3.03;;;1.67;;
735;SDS011;352;48.626;9.238;2022-10-24T01:57:37;3.43;;;1.80;;
735;SDS011;352;48.626;9.238;2022-10-24T02:00:05;4.13;;;1.70;;
735;SDS011;352;48.626;9.238;2022-10-24T02:02:40;2.67;;;1.40;;
735;SDS011;352;48.626;9.238;2022-10-24T02:05:10;4.00;;;1.80;;
735;SDS011;352;48.626;9.238;2022-10-24T02:07:40;2.47;;;2.00;;
735;SDS011;352;48.626;9.238;2022-10-24T02:10:11;3.17;;;1.73;;
735;SDS011;352;48.626;9.238;2022-10-24T02:12:43;3.87;;;1.80;;
735;SDS011;352;48.626;9.238;2022-10-24T02:15:15;4.20;;;2.00;;
735;SDS011;352;48.626;9.238;2022-10-24T02:17:46;5.67;;;1.73;;
735;SDS011;352;48.626;9.238;2022-10-24T02:20:13;6.13;;;2.17;;
735;SDS011;352;48.626;9.238;2022-10-24T02:22:41;8.33;;;2.43;;
735;SDS011;352;48.626;9.238;2022-10-24T02:25:15;9.60;;;3.20;;
735;SDS011;352;48.626;9.238;2022-10-24T02:27:46;4.90;;;1.80;;
735;SDS011;352;48.626;9.238;2022-10-24T02:30:20;4.87;;;1.97;;
735;SDS011;352;48.626;9.238;2022-10-24T02:32:49;5.90;;;2.23;;
735;SDS011;352;48.626;9.238;2022-10-24T02:35:19;5.10;;;2.10;;
735;SDS011;352;48.626;9.238;2022-10-24T02:37:52;8.73;;;3.10;;
735;SDS011;352;48.626;9.238;2022-10-24T02:40:22;7.67;;;2.83;;
735;SDS011;352;48.626;9.238;2022-10-24T02:42:50;6.23;;;2.90;;
735;SDS011;352;48.626;9.238;2022-10-24T02:45:21;4.37;;;2.30;;
735;SDS011;352;48.626;9.238;2022-10-24T02:47:49;6.90;;;2.63;;
735;SDS011;352;48.626;9.238;2022-10-24T02:50:20;5.77;;;2.00;;
735;SDS011;352;48.626;9.238;2022-10-24T02:52:47;7.80;;;2.20;;
735;SDS011;352;48.626;9.238;2022-10-24T02:55:14;5.03;;;2.20;;
735;SDS011;352;48.626;9.238;2022-10-24T02:57:41;5.67;;;2.10;;
735;SDS011;352;48.626;9.238;2022-10-24T03:00:08;3.73;;;2.43;;
735;SDS011;352;48.626;9.238;2022-10-24T03:02:37;8.67;;;3.30;;
735;SDS011;352;48.626;9.238;2022-10-24T03:05:04;6.50;;;2.30;;
735;SDS011;352;48.626;9.238;2022-10-24T03:07:31;6.23;;;2.60;;
735;SDS011;352;48.626;9.238;2022-10-24T03:09:58;6.33;;;2.50;;
735;SDS011;352;48.626;9.238;2022-10-24T03:12:25;5.07;;;2.30;;
735;SDS011;352;48.626;9.238;2022-10-24T03:14:51;9.03;;;2.90;;
735;SDS011;352;48.626;9.238;2022-10-24T03:17:18;6.00;;;2.33;;
735;SDS011;352;48.626;9.238;2022-10-24T03:19:47;3.83;;;2.40;;
735;SDS011;352;48.626;9.238;2022-10-24T03:22:14;6.37;;;2.30;;
735;SDS011;352;48.626;9.238;2022-10-24T03:24:41;6.60;;;2.30;;
735;SDS011;352;48.626;9.238;2022-10-24T03:27:07;5.20;;;2.20;;
735;SDS011;352;48.626;9.238;2022-10-24T03:29:34;9.33;;;3.07;;
735;SDS011;352;48.626;9.238;2022-10-24T03:32:01;4.87;;;2.60;;
735;SDS011;352;48.626;9.238;2022-10-24T03:34:28;4.40;;;1.97;;
735;SDS011;352;48.626;9.238;2022-10-24T03:36:56;8.83;;;2.23;;
735;SDS011;352;48.626;9.238;2022-10-24T03:39:23;4.90;;;2.17;;
735;SDS011;352;48.626;9.238;2022-10-24T03:41:50;7.30;;;2.27;;
735;SDS011;352;48.626;9.238;2022-10-24T03:44:16;5.73;;;2.87;;
735;SDS011;352;48.626;9.238;2022-10-24T03:46:43;5.90;;;2.00;;
735;SDS011;352;48.626;9.238;2022-10-24T03:49:10;4.37;;;2.23;;
735;SDS011;352;48.626;9.238;2022-10-24T03:51:37;7.37;;;2.80;;
735;SDS011;352;48.626;9.238;2022-10-24T03:54:05;7.77;;;2.63;;
735;SDS011;352;48.626;9.238;2022-10-24T03:56:31;9.53;;;2.70;;
735;SDS011;352;48.626;9.238;2022-10-24T03:58:58;5.23;;;2.27;;
735;SDS011;352;48.626;9.238;2022-10-24T04:01:25;4.80;;;2.40;;
735;SDS011;352;48.626;9.238;2022-10-24T04:03:52;5.30;;;2.53;;
735;SDS011;352;48.626;9.238;2022-10-24T04:06:18;4.43;;;2.90;;
735;SDS011;352;48.626;9.238;2022-10-24T04:08:45;9.60;;;2.93;;
735;SDS011;352;48.626;9.238;2022-10-24T04:11:13;6.17;;;2.50;;
735;SDS011;352;48.626;9.238;2022-10-24T04:13:40;6.87;;;3.03;;
735;SDS011;352;48.626;9.238;2022-10-24T04:16:07;11.80;;;3.50;;
735;SDS011;352;48.626;9.238;2022-10-24T04:18:34;5.17;;;2.10;;
735;SDS011;352;48.626;9.238;2022-10-24T04:21:01;10.20;;;2.90;;
735;SDS011;352;48.626;9.238;2022-10-24T04:23:28;6.07;;;2.50;;
735;SDS011;352;48.626;9.238;2022-10-24T04:25:58;8.90;;;2.43;;
735;SDS011;352;48.626;9.238;2022-10-24T04:28:26;5.97;;;2.50;;
735;SDS011;352;48.626;9.238;2022-10-24T04:30:54;7.60;;;2.97;;
735;SDS011;352;48.626;9.238;2022-10-24T04:33:21;8.43;;;2.40;;
735;SDS011;352;48.626;9.238;2022-10-24T04:35:48;3.10;;;2.20;;
735;SDS011;352;48.626;9.238;2022-10-24T04:38:16;7.23;;;3.30;;
735;SDS011;352;48.626;9.238;2022-10-24T04:40:44;6.60;;;2.47;;
735;SDS011;352;48.626;9.238;2022-10-24T04:43:12;5.03;;;2.40;;
735;SDS011;352;48.626;9.238;2022-10-24T04:45:40;5.67;;;2.40;;
735;SDS011;352;48.626;9.238;2022-10-24T04:48:07;5.57;;;2.90;;
735;SDS011;352;48.626;9.238;2022-10-24T04:50:34;10.40;;;3.20;;
735;SDS011;352;48.626;9.238;2022-10-24T04:53:01;9.67;;;3.20;;
735;SDS011;352;48.626;9.238;2022-10-24T04:55:28;8.90;;;3.60;;
735;SDS011;352;48.626;9.238;2022-10-24T04:57:55;11.77;;;4.43;;
735;SDS011;352;48.626;9.238;2022-10-24T05:00:22;5.90;;;3.17;;
735;SDS011;352;48.626;9.238;2022-10-24T05:02:50;4.70;;;2.70;;
735;SDS011;352;48.626;9.238;2022-10-24T05:05:17;7.27;;;2.97;;
735;SDS011;352;48.626;9.238;2022-10-24T05:07:44;9.43;;;3.93;;
735;SDS011;352;48.626;9.238;2022-10-24T05:10:11;4.70;;;2.57;;
735;SDS011;352;48.626;9.238;2022-10-24T05:12:39;7.60;;;3.07;;
735;SDS011;352;48.626;9.238;2022-10-24T05:15:06;6.33;;;3.33;;
735;SDS011;352;48.626;9.238;2022-10-24T05:17:33;6.30;;;2.80;;
735;SDS011;352;48.626;9.238;2022-10-24T05:20:02;7.33;;;3.93;;
735;SDS011;352;48.626;9.238;2022-10-24T05:22:31;5.80;;;3.17;;
735;SDS011;352;48.626;9.238;2022-10-24T05:24:58;3.60;;;2.57;;
735;SDS011;352;48.626;9.238;2022-10-24T05:27:24;3.50;;;2.70;;
735;SDS011;352;48.626;9.238;2022-10-24T05:29:51;6.67;;;2.43;;
735;SDS011;352;48.626;9.238;2022-10-24T05:32:19;9.40;;;3.00;;
735;SDS011;352;48.626;9.238;2022-10-24T05:34:47;6.60;;;2.57;;
735;SDS011;352;48.626;9.238;2022-10-24T05:37:16;5.03;;;3.10;;
735;SDS011;352;48.626;9.238;2022-10-24T05:39:42;3.40;;;2.50;;
735;SDS011;352;48.626;9.238;2022-10-24T05:42:09;6.13;;;2.60;;
735;SDS011;352;48.626;9.238;2022-10-24T05:44:36;6.50;;;2.60;;
735;SDS011;352;48.626;9.238;2022-10-24T05:47:03;5.23;;;2.80;;
735;SDS011;352;48.626;9.238;2022-10-24T05:49:30;5.07;;;2.33;;
735;SDS011;352;48.626;9.238;2022-10-24T05:51:57;8.17;;;2.63;;
735;SDS011;352;48.626;9.238;2022-10-24T05:54:25;6.40;;;2.27;;
735;SDS011;352;48.626;9.238;2022-10-24T05:56:52;5.07;;;2.23;;
735;SDS011;352;48.626;9.238;2022-10-24T05:59:18;6.00;;;3.00;;
735;SDS011;352;48.626;9.238;2022-10-24T06:01:45;5.53;;;2.33;;
735;SDS011;352;48.626;9.238;2022-10-24T06:04:12;2.57;;;2.30;;
735;SDS011;352;48.626;9.238;2022-10-24T06:06:39;4.77;;;2.60;;
735;SDS011;352;48.626;9.238;2022-10-24T06:09:07;4.73;;;2.70;;
735;SDS011;352;48.626;9.238;2022-10-24T06:11:35;4.30;;;2.30;;
735;SDS011;352;48.626;9.238;2022-10-24T06:14:03;6.67;;;2.37;;
735;SDS011;352;48.626;9.238;2022-10-24T06:16:30;6.10;;;2.10;;
735;SDS011;352;48.626;9.238;2022-10-24T06:18:58;5.73;;;2.10;;
735;SDS011;352;48.626;9.238;2022-10-24T06:21:25;4.87;;;2.13;;
735;SDS011;352;48.626;9.238;2022-10-24T06:23:52;5.33;;;1.87;;
735;SDS011;352;48.626;9.238;2022-10-24T06:26:19;2.23;;;1.83;;
735;SDS011;352;48.626;9.238;2022-10-24T06:28:47;3.73;;;2.13;;
735;SDS011;352;48.626;9.238;2022-10-24T06:31:14;7.50;;;2.87;;
735;SDS011;352;48.626;9.238;2022-10-24T06:33:42;5.67;;;2.37;;
735;SDS011;352;48.626;9.238;2022-10-24T06:36:09;4.80;;;2.20;;
735;SDS011;352;48.626;9.238;2022-10-24T06:38:36;5.57;;;2.63;;
735;SDS011;352;48.626;9.238;2022-10-24T06:41:04;4.70;;;2.50;;
735;SDS011;352;48.626;9.238;2022-10-24T06:43:32;5.30;;;4.63;;
735;SDS011;352;48.626;9.238;2022-10-24T06:46:01;4.60;;;2.10;;
735;SDS011;352;48.626;9.238;2022-10-24T06:48:30;7.50;;;3.33;;
735;SDS011;352;48.626;9.238;2022-10-24T06:50:57;10.03;;;2.97;;
735;SDS011;352;48.626;9.238;2022-10-24T06:53:24;4.10;;;2.20;;
735;SDS011;352;48.626;9.238;2022-10-24T06:55:51;4.70;;;2.80;;
735;SDS011;352;48.626;9.238;2022-10-24T06:58:17;6.80;;;2.50;;
735;SDS011;352;48.626;9.238;2022-10-24T07:00:44;6.43;;;2.43;;
735;SDS011;352;48.626;9.238;2022-10-24T07:03:13;5.27;;;2.53;;
735;SDS011;352;48.626;9.238;2022-10-24T07:05:40;6.30;;;2.47;;
735;SDS011;352;48.626;9.238;2022-10-24T07:08:07;6.20;;;2.60;;
735;SDS011;352;48.626;9.238;2022-10-24T07:10:35;4.53;;;2.30;;
735;SDS011;352;48.626;9.238;2022-10-24T07:13:01;4.83;;;2.13;;
735;SDS011;352;48.626;9.238;2022-10-24T07:15:28;10.27;;;2.60;;
735;SDS011;352;48.626;9.238;2022-10-24T07:17:55;7.53;;;2.43;;
735;SDS011;352;48.626;9.238;2022-10-24T07:20:23;4.90;;;3.00;;
735;SDS011;352;48.626;9.238;2022-10-24T07:22:50;5.10;;;3.17;;
735;SDS011;352;48.626;9.238;2022-10-24T07:25:17;5.97;;;3.00;;
735;SDS011;352;48.626;9.238;2022-10-24T07:27:43;7.27;;;3.10;;
735;SDS011;352;48.626;9.238;2022-10-24T07:30:12;6.80;;;2.53;;
735;SDS011;352;48.626;9.238;2022-10-24T07:32:42;3.23;;;2.23;;
735;SDS011;352;48.626;9.238;2022-10-24T07:35:10;8.50;;;2.47;;
735;SDS011;352;48.626;9.238;2022-10-24T07:37:39;4.30;;;2.53;;
735;SDS011;352;48.626;9.238;2022-10-24T07:40:06;6.90;;;3.13;;
735;SDS011;352;48.626;9.238;2022-10-24T07:42:34;7.70;;;2.43;;
735;SDS011;352;48.626;9.238;2022-10-24T07:45:00;5.73;;;2.37;;
735;SDS011;352;48.626;9.238;2022-10-24T07:47:28;6.30;;;2.80;;
735;SDS011;352;48.626;9.238;2022-10-24T07:49:55;7.53;;;3.10;;
735;SDS011;352;48.626;9.238;2022-10-24T07:52:22;5.37;;;2.90;;
735;SDS011;352;48.626;9.238;2022-10-24T07:54:51;9.23;;;3.60;;
735;SDS011;352;48.626;9.238;2022-10-24T07:57:18;20.13;;;11.10;;
735;SDS011;352;48.626;9.238;2022-10-24T07:59:45;23.23;;;12.53;;
735;SDS011;352;48.626;9.238;2022-10-24T08:02:12;15.50;;;10.70;;
735;SDS011;352;48.626;9.238;2022-10-24T08:04:40;11.00;;;6.67;;
735;SDS011;352;48.626;9.238;2022-10-24T08:07:08;5.27;;;3.20;;
735;SDS011;352;48.626;9.238;2022-10-24T08:09:37;5.30;;;3.80;;
735;SDS011;352;48.626;9.238;2022-10-24T08:12:05;7.37;;;4.10;;
735;SDS011;352;48.626;9.238;2022-10-24T08:14:32;5.07;;;3.07;;
735;SDS011;352;48.626;9.238;2022-10-24T08:17:00;4.50;;;2.57;;
735;SDS011;352;48.626;9.238;2022-10-24T08:19:26;6.70;;;2.90;;
735;SDS011;352;48.626;9.238;2022-10-24T08:21:53;6.30;;;3.23;;
735;SDS011;352;48.626;9.238;2022-10-24T08:24:20;5.70;;;2.77;;
735;SDS011;352;48.626;9.238;2022-10-24T08:26:47;3.00;;;2.43;;
735;SDS011;352;48.626;9.238;2022-10-24T08:29:15;5.27;;;2.73;;
735;SDS011;352;48.626;9.238;2022-10-24T08:31:47;3.90;;;2.40;;
735;SDS011;352;48.626;9.238;2022-10-24T08:34:14;5.93;;;3.20;;
735;SDS011;352;48.626;9.238;2022-10-24T08:36:41;6.93;;;4.83;;
735;SDS011;352;48.626;9.238;2022-10-24T08:39:08;8.40;;;4.30;;
735;SDS011;352;48.626;9.238;2022-10-24T08:41:36;6.70;;;3.50;;
735;SDS011;352;48.626;9.238;2022-10-24T08:44:05;4.93;;;2.97;;
735;SDS011;352;48.626;9.238;2022-10-24T08:46:43;9.33;;;3.30;;
735;SDS011;352;48.626;9.238;2022-10-24T08:49:16;5.27;;;3.30;;
735;SDS011;352;48.626;9.238;2022-10-24T08:51:50;7.83;;;3.57;;
735;SDS011;352;48.626;9.238;2022-10-24T08:54:20;6.30;;;3.00;;
735;SDS011;352;48.626;9.238;2022-10-24T08:56:50;9.80;;;3.30;;
735;SDS011;352;48.626;9.238;2022-10-24T08:59:19;9.13;;;3.43;;
735;SDS011;352;48.626;9.238;2022-10-24T09:01:49;8.03;;;2.90;;
735;SDS011;352;48.626;9.238;2022-10-24T09:04:20;7.00;;;3.10;;
735;SDS011;352;48.626;9.238;2022-10-24T09:06:52;4.77;;;3.90;;
735;SDS011;352;48.626;9.238;2022-10-24T09:09:22;8.23;;;2.77;;
735;SDS011;352;48.626;9.238;2022-10-24T09:11:54;5.23;;;2.90;;
735;SDS011;352;48.626;9.238;2022-10-24T09:14:25;7.00;;;3.00;;
735;SDS011;352;48.626;9.238;2022-10-24T09:16:55;6.67;;;2.73;;
735;SDS011;352;48.626;9.238;2022-10-24T09:19:26;5.37;;;2.83;;
735;SDS011;352;48.626;9.238;2022-10-24T09:21:55;3.97;;;2.50;;
735;SDS011;352;48.626;9.238;2022-10-24T09:24:33;5.23;;;3.07;;
735;SDS011;352;48.626;9.238;2022-10-24T09:27:04;4.90;;;3.13;;
735;SDS011;352;48.626;9.238;2022-10-24T09:29:36;5.67;;;3.00;;
735;SDS011;352;48.626;9.238;2022-10-24T09:32:08;6.70;;;2.37;;
735;SDS011;352;48.626;9.238;2022-10-24T09:34:42;6.40;;;2.80;;
735;SDS011;352;48.626;9.238;2022-10-24T09:39:56;4.30;;;2.57;;
735;SDS011;352;48.626;9.238;2022-10-24T09:42:31;5.97;;;2.43;;
735;SDS011;352;48.626;9.238;2022-10-24T09:44:58;6.10;;;2.27;;
735;SDS011;352;48.626;9.238;2022-10-24T09:47:27;3.83;;;2.07;;
735;SDS011;352;48.626;9.238;2022-10-24T09:49:54;4.47;;;2.63;;
735;SDS011;352;48.626;9.238;2022-10-24T09:52:26;6.40;;;3.23;;
735;SDS011;352;48.626;9.238;2022-10-24T09:55:03;10.93;;;5.17;;
735;SDS011;352;48.626;9.238;2022-10-24T09:57:40;5.53;;;4.00;;
735;SDS011;352;48.626;9.238;2022-10-24T10:00:11;8.63;;;4.80;;
735;SDS011;352;48.626;9.238;2022-10-24T10:02:57;8.20;;;5.00;;
735;SDS011;352;48.626;9.238;2022-10-24T10:05:40;6.83;;;3.50;;
735;SDS011;352;48.626;9.238;2022-10-24T10:08:09;4.50;;;2.73;;
735;SDS011;352;48.626;9.238;2022-10-24T10:10:41;6.30;;;2.63;;
735;SDS011;352;48.626;9.238;2022-10-24T10:13:17;4.33;;;2.57;;
735;SDS011;352;48.626;9.238;2022-10-24T10:15:48;3.50;;;2.50;;
735;SDS011;352;48.626;9.238;2022-10-24T10:18:29;3.87;;;2.63;;
735;SDS011;352;48.626;9.238;2022-10-24T10:21:01;5.83;;;2.37;;
735;SDS011;352;48.626;9.238;2022-10-24T10:23:32;3.97;;;2.60;;
735;SDS011;352;48.626;9.238;2022-10-24T10:26:01;4.97;;;2.60;;
735;SDS011;352;48.626;9.238;2022-10-24T10:28:51;10.93;;;3.00;;
735;SDS011;352;48.626;9.238;2022-10-24T10:31:21;5.13;;;2.57;;
735;SDS011;352;48.626;9.238;2022-10-24T10:34:02;5.33;;;2.30;;
735;SDS011;352;48.626;9.238;2022-10-24T10:36:43;6.00;;;2.50;;
735;SDS011;352;48.626;9.238;2022-10-24T10:39:26;4.70;;;2.50;;
735;SDS011;352;48.626;9.238;2022-10-24T10:42:05;4.87;;;2.20;;
735;SDS011;352;48.626;9.238;2022-10-24T10:44:46;3.53;;;2.20;;
735;SDS011;352;48.626;9.238;2022-10-24T10:47:23;6.80;;;2.67;;
735;SDS011;352;48.626;9.238;2022-10-24T10:50:00;4.00;;;2.50;;
735;SDS011;352;48.626;9.238;2022-10-24T10:52:37;5.30;;;2.10;;
735;SDS011;352;48.626;9.238;2022-10-24T10:55:24;4.67;;;2.20;;
735;SDS011;352;48.626;9.238;2022-10-24T10:57:59;4.47;;;2.00;;
735;SDS011;352;48.626;9.238;2022-10-24T11:00:38;2.57;;;1.80;;
735;SDS011;352;48.626;9.238;2022-10-24T11:03:16;2.10;;;1.90;;
735;SDS011;352;48.626;9.238;2022-10-24T11:05:54;6.30;;;2.33;;
735;SDS011;352;48.626;9.238;2022-10-24T11:08:34;7.63;;;2.27;;
735;SDS011;352;48.626;9.238;2022-10-24T11:11:11;5.93;;;2.53;;
735;SDS011;352;48.626;9.238;2022-10-24T11:13:42;2.30;;;2.10;;
735;SDS011;352;48.626;9.238;2022-10-24T11:16:16;5.50;;;3.30;;
735;SDS011;352;48.626;9.238;2022-10-24T11:18:47;6.90;;;2.07;;
735;SDS011;352;48.626;9.238;2022-10-24T11:21:18;5.20;;;2.23;;
735;SDS011;352;48.626;9.238;2022-10-24T11:23:50;2.50;;;1.53;;
735;SDS011;352;48.626;9.238;2022-10-24T11:26:21;1.53;;;1.40;;
735;SDS011;352;48.626;9.238;2022-10-24T11:28:55;5.73;;;2.10;;
735;SDS011;352;48.626;9.238;2022-10-24T11:31:25;3.37;;;1.60;;
735;SDS011;352;48.626;9.238;2022-10-24T11:33:56;1.87;;;1.50;;
735;SDS011;352;48.626;9.238;2022-10-24T11:36:29;1.53;;;1.30;;
735;SDS011;352;48.626;9.238;2022-10-24T11:39:02;5.50;;;1.70;;
735;SDS011;352;48.626;9.238;2022-10-24T11:41:42;2.50;;;1.40;;
735;SDS011;352;48.626;9.238;2022-10-24T11:44:24;3.30;;;1.60;;
735;SDS011;352;48.626;9.238;2022-10-24T11:46:59;1.97;;;1.30;;
735;SDS011;352;48.626;9.238;2022-10-24T11:49:33;3.40;;;1.70;;
735;SDS011;352;48.626;9.238;2022-10-24T11:52:10;1.80;;;1.40;;
735;SDS011;352;48.626;9.238;2022-10-24T11:54:45;3.03;;;1.50;;
735;SDS011;352;48.626;9.238;2022-10-24T11:57:19;3.50;;;1.90;;
735;SDS011;352;48.626;9.238;2022-10-24T11:59:50;3.00;;;1.60;;
735;SDS011;352;48.626;9.238;2022-10-24T12:02:27;3.07;;;1.50;;
735;SDS011;352;48.626;9.238;2022-10-24T12:05:13;2.07;;;1.57;;
735;SDS011;352;48.626;9.238;2022-10-24T12:08:15;2.13;;;1.30;;
735;SDS011;352;48.626;9.238;2022-10-24T12:14:19;1.40;;;1.30;;
735;SDS011;352;48.626;9.238;2022-10-24T12:17:03;1.60;;;1.50;;
735;SDS011;352;48.626;9.238;2022-10-24T12:19:41;1.77;;;1.67;;
735;SDS011;352;48.626;9.238;2022-10-24T12:22:10;1.80;;;1.60;;
735;SDS011;352;48.626;9.238;2022-10-24T12:24:43;3.13;;;1.63;;
735;SDS011;352;48.626;9.238;2022-10-24T12:27:20;2.43;;;1.63;;
735;SDS011;352;48.626;9.238;2022-10-24T12:29:59;2.10;;;1.43;;
735;SDS011;352;48.626;9.238;2022-10-24T12:32:34;1.70;;;1.40;;
735;SDS011;352;48.626;9.238;2022-10-24T12:38:14;1.90;;;1.30;;
735;SDS011;352;48.626;9.238;2022-10-24T12:40:52;2.17;;;1.77;;
735;SDS011;352;48.626;9.238;2022-10-24T12:43:28;3.37;;;1.30;;
735;SDS011;352;48.626;9.238;2022-10-24T12:45:57;1.40;;;1.30;;
735;SDS011;352;48.626;9.238;2022-10-24T12:48:29;1.53;;;1.43;;
735;SDS011;352;48.626;9.238;2022-10-24T12:50:59;1.70;;;1.20;;
735;SDS011;352;48.626;9.238;2022-10-24T12:53:36;1.43;;;1.23;;
735;SDS011;352;48.626;9.238;2022-10-24T12:56:07;1.60;;;1.50;;
735;SDS011;352;48.626;9.238;2022-10-24T12:58:39;1.97;;;1.50;;
735;SDS011;352;48.626;9.238;2022-10-24T13:01:09;1.57;;;1.37;;
735;SDS011;352;48.626;9.238;2022-10-24T13:06:57;1.67;;;1.17;;
735;SDS011;352;48.626;9.238;2022-10-24T13:09:47;1.23;;;1.13;;
735;SDS011;352;48.626;9.238;2022-10-24T13:12:28;1.10;;;1.00;;
735;SDS011;352;48.626;9.238;2022-10-24T13:15:17;3.10;;;1.60;;
735;SDS011;352;48.626;9.238;2022-10-24T13:17:56;2.30;;;1.20;;
735;SDS011;352;48.626;9.238;2022-10-24T13:20:32;2.00;;;1.33;;
735;SDS011;352;48.626;9.238;2022-10-24T13:23:02;2.03;;;1.10;;
735;SDS011;352;48.626;9.238;2022-10-24T13:25:38;2.20;;;1.47;;
735;SDS011;352;48.626;9.238;2022-10-24T13:34:14;2.57;;;1.70;;
735;SDS011;352;48.626;9.238;2022-10-24T13:36:51;1.93;;;1.60;;
735;SDS011;352;48.626;9.238;2022-10-24T13:39:28;6.13;;;1.60;;
735;SDS011;352;48.626;9.238;2022-10-24T13:41:59;4.03;;;1.67;;
735;SDS011;352;48.626;9.238;2022-10-24T13:44:33;2.50;;;1.33;;
735;SDS011;352;48.626;9.238;2022-10-24T13:47:11;1.90;;;1.33;;
735;SDS011;352;48.626;9.238;2022-10-24T13:49:46;2.83;;;1.50;;
735;SDS011;352;48.626;9.238;2022-10-24T13:52:18;3.23;;;1.60;;
735;SDS011;352;48.626;9.238;2022-10-24T13:54:49;5.13;;;1.60;;
735;SDS011;352;48.626;9.238;2022-10-24T13:57:22;1.97;;;1.87;;
735;SDS011;352;48.626;9.238;2022-10-24T13:59:56;1.97;;;1.77;;
735;SDS011;352;48.626;9.238;2022-10-24T14:02:25;4.10;;;1.73;;
735;SDS011;352;48.626;9.238;2022-10-24T14:04:55;1.67;;;1.30;;
735;SDS011;352;48.626;9.238;2022-10-24T14:07:25;2.13;;;1.70;;
735;SDS011;352;48.626;9.238;2022-10-24T14:09:55;1.93;;;1.60;;
735;SDS011;352;48.626;9.238;2022-10-24T14:12:26;1.40;;;1.30;;
735;SDS011;352;48.626;9.238;2022-10-24T14:14:56;2.00;;;1.77;;
735;SDS011;352;48.626;9.238;2022-10-24T14:17:27;2.27;;;1.60;;
735;SDS011;352;48.626;9.238;2022-10-24T14:19:56;2.17;;;1.97;;
735;SDS011;352;48.626;9.238;2022-10-24T14:22:27;1.70;;;1.60;;
735;SDS011;352;48.626;9.238;2022-10-24T14:24:56;4.97;;;2.00;;
735;SDS011;352;48.626;9.238;2022-10-24T14:27:23;1.77;;;1.50;;
735;SDS011;352;48.626;9.238;2022-10-24T14:29:55;2.40;;;1.63;;
735;SDS011;352;48.626;9.238;2022-10-24T14:32:25;1.63;;;1.50;;
735;SDS011;352;48.626;9.238;2022-10-24T14:34:53;4.00;;;1.80;;
735;SDS011;352;48.626;9.238;2022-10-24T14:37:26;4.73;;;1.90;;
735;SDS011;352;48.626;9.238;2022-10-24T14:39:54;3.80;;;2.50;;
735;SDS011;352;48.626;9.238;2022-10-24T14:42:21;2.30;;;1.80;;
735;SDS011;352;48.626;9.238;2022-10-24T14:44:49;2.50;;;1.93;;
735;SDS011;352;48.626;9.238;2022-10-24T14:47:21;2.23;;;1.90;;
735;SDS011;352;48.626;9.238;2022-10-24T14:49:50;1.90;;;1.70;;
735;SDS011;352;48.626;9.238;2022-10-24T14:52:20;2.80;;;1.70;;
735;SDS011;352;48.626;9.238;2022-10-24T14:54:51;4.40;;;1.80;;
735;SDS011;352;48.626;9.238;2022-10-24T14:57:22;3.20;;;2.20;;
735;SDS011;352;48.626;9.238;2022-10-24T14:59:51;2.60;;;1.70;;
735;SDS011;352;48.626;9.238;2022-10-24T15:02:22;2.33;;;1.60;;
735;SDS011;352;48.626;9.238;2022-10-24T15:04:51;2.27;;;1.90;;
735;SDS011;352;48.626;9.238;2022-10-24T15:07:37;2.20;;;2.00;;
735;SDS011;352;48.626;9.238;2022-10-24T15:10:18;2.10;;;1.90;;
735;SDS011;352;48.626;9.238;2022-10-24T15:12:51;2.47;;;2.27;;
735;SDS011;352;48.626;9.238;2022-10-24T15:15:22;3.27;;;1.80;;
735;SDS011;352;48.626;9.238;2022-10-24T15:17:51;4.30;;;1.70;;
735;SDS011;352;48.626;9.238;2022-10-24T15:20:22;2.23;;;1.70;;
735;SDS011;352;48.626;9.238;2022-10-24T15:22:53;2.00;;;1.80;;
735;SDS011;352;48.626;9.238;2022-10-24T15:25:23;3.93;;;2.00;;
735;SDS011;352;48.626;9.238;2022-10-24T15:27:52;2.10;;;1.47;;
735;SDS011;352;48.626;9.238;2022-10-24T15:30:23;2.70;;;1.67;;
735;SDS011;352;48.626;9.238;2022-10-24T15:32:54;3.10;;;1.93;;
735;SDS011;352;48.626;9.238;2022-10-24T15:35:23;3.20;;;1.90;;
735;SDS011;352;48.626;9.238;2022-10-24T15:37:53;5.90;;;1.80;;
735;SDS011;352;48.626;9.238;2022-10-24T15:40:23;6.70;;;2.37;;
735;SDS011;352;48.626;9.238;2022-10-24T15:42:51;3.70;;;2.40;;
735;SDS011;352;48.626;9.238;2022-10-24T15:45:18;3.57;;;2.33;;
735;SDS011;352;48.626;9.238;2022-10-24T15:47:47;3.60;;;2.33;;
735;SDS011;352;48.626;9.238;2022-10-24T15:50:18;3.17;;;2.50;;
735;SDS011;352;48.626;9.238;2022-10-24T15:52:47;4.90;;;2.27;;
735;SDS011;352;48.626;9.238;2022-10-24T15:55:17;2.33;;;2.03;;
735;SDS011;352;48.626;9.238;2022-10-24T15:57:46;4.63;;;2.40;;
735;SDS011;352;48.626;9.238;2022-10-24T16:00:13;3.80;;;2.23;;
735;SDS011;352;48.626;9.238;2022-10-24T16:02:41;2.77;;;2.07;;
735;SDS011;352;48.626;9.238;2022-10-24T16:05:12;4.20;;;2.00;;
735;SDS011;352;48.626;9.238;2022-10-24T16:07:42;2.63;;;2.20;;
735;SDS011;352;48.626;9.238;2022-10-24T16:10:10;4.13;;;2.47;;
735;SDS011;352;48.626;9.238;2022-10-24T16:12:39;3.40;;;2.37;;
735;SDS011;352;48.626;9.238;2022-10-24T16:15:08;3.00;;;2.20;;
735;SDS011;352;48.626;9.238;2022-10-24T16:17:43;3.33;;;2.50;;
735;SDS011;352;48.626;9.238;2022-10-24T16:20:09;3.10;;;2.60;;
735;SDS011;352;48.626;9.238;2022-10-24T16:22:36;6.90;;;2.70;;
735;SDS011;352;48.626;9.238;2022-10-24T16:25:05;2.93;;;2.43;;
735;SDS011;352;48.626;9.238;2022-10-24T16:27:32;5.93;;;3.97;;
735;SDS011;352;48.626;9.238;2022-10-24T16:29:58;3.97;;;3.47;;
735;SDS011;352;48.626;9.238;2022-10-24T16:32:25;2.90;;;2.60;;